sensor_id;sensor_type;location;lat;lon;timestamp;P1;durP1;ratioP1;P2;durP2;ratioP2
69754;SDS011;57023;52.218;5.158;2023-01-29T00:02:09;11.30;;;8.40;;
69754;SDS011;57023;52.218;5.158;2023-01-29T00:04:34;11.75;;;7.68;;
69754;SDS011;57023;52.218;5.158;2023-01-29T00:07:00;12.75;;;8.25;;
69754;SDS011;57023;52.218;5.158;2023-01-29T00:09:26;11.45;;;8.32;;
69754;SDS011;57023;52.218;5.158;2023-01-29T00:11:51;10.90;;;7.70;;
69754;SDS011;57023;52.218;5.158;2023-01-29T00:14:17;12.35;;;7.97;;
69754;SDS011;57023;52.218;5.158;2023-01-29T00:16:43;12.50;;;7.90;;
69754;SDS011;57023;52.218;5.158;2023-01-29T00:19:08;11.98;;;8.10;;
69754;SDS011;57023;52.218;5.158;2023-01-29T00:21:34;12.32;;;8.10;;
69754;SDS011;57023;52.218;5.158;2023-01-29T00:23:59;11.93;;;8.60;;
69754;SDS011;57023;52.218;5.158;2023-01-29T00:26:25;12.30;;;7.97;;
69754;SDS011;57023;52.218;5.158;2023-01-29T00:28:51;12.50;;;8.30;;
69754;SDS011;57023;52.218;5.158;2023-01-29T00:31:18;11.75;;;7.88;;
69754;SDS011;57023;52.218;5.158;2023-01-29T00:33:44;14.00;;;8.50;;
69754;SDS011;57023;52.218;5.158;2023-01-29T00:36:11;10.55;;;6.65;;
69754;SDS011;57023;52.218;5.158;2023-01-29T00:38:37;10.33;;;6.87;;
69754;SDS011;57023;52.218;5.158;2023-01-29T00:43:57;13.27;;;8.40;;
69754;SDS011;57023;52.218;5.158;2023-01-29T00:46:41;10.63;;;6.78;;
69754;SDS011;57023;52.218;5.158;2023-01-29T00:49:07;13.02;;;8.13;;
69754;SDS011;57023;52.218;5.158;2023-01-29T00:51:32;14.68;;;9.00;;
69754;SDS011;57023;52.218;5.158;2023-01-29T00:53:58;13.38;;;8.20;;
69754;SDS011;57023;52.218;5.158;2023-01-29T00:56:24;13.15;;;9.02;;
69754;SDS011;57023;52.218;5.158;2023-01-29T00:58:50;13.57;;;9.57;;
69754;SDS011;57023;52.218;5.158;2023-01-29T01:01:16;15.10;;;9.70;;
69754;SDS011;57023;52.218;5.158;2023-01-29T01:03:41;12.70;;;8.90;;
69754;SDS011;57023;52.218;5.158;2023-01-29T01:06:08;15.30;;;9.40;;
69754;SDS011;57023;52.218;5.158;2023-01-29T01:08:34;14.02;;;8.75;;
69754;SDS011;57023;52.218;5.158;2023-01-29T01:11:18;10.75;;;7.07;;
69754;SDS011;57023;52.218;5.158;2023-01-29T01:13:43;12.13;;;8.55;;
69754;SDS011;57023;52.218;5.158;2023-01-29T01:16:12;14.20;;;9.18;;
69754;SDS011;57023;52.218;5.158;2023-01-29T01:18:39;13.63;;;8.98;;
69754;SDS011;57023;52.218;5.158;2023-01-29T01:21:05;13.18;;;9.27;;
69754;SDS011;57023;52.218;5.158;2023-01-29T01:23:30;14.15;;;9.30;;
69754;SDS011;57023;52.218;5.158;2023-01-29T01:25:56;13.05;;;9.18;;
69754;SDS011;57023;52.218;5.158;2023-01-29T01:28:21;12.70;;;9.05;;
69754;SDS011;57023;52.218;5.158;2023-01-29T01:30:46;13.05;;;9.15;;
69754;SDS011;57023;52.218;5.158;2023-01-29T01:33:12;14.35;;;9.38;;
69754;SDS011;57023;52.218;5.158;2023-01-29T01:35:37;13.45;;;8.52;;
69754;SDS011;57023;52.218;5.158;2023-01-29T01:38:03;13.73;;;8.85;;
69754;SDS011;57023;52.218;5.158;2023-01-29T01:40:28;12.73;;;8.70;;
69754;SDS011;57023;52.218;5.158;2023-01-29T01:42:54;13.27;;;8.60;;
69754;SDS011;57023;52.218;5.158;2023-01-29T01:47:47;13.68;;;8.60;;
69754;SDS011;57023;52.218;5.158;2023-01-29T01:50:26;11.63;;;7.32;;
69754;SDS011;57023;52.218;5.158;2023-01-29T01:55:55;12.50;;;8.25;;
69754;SDS011;57023;52.218;5.158;2023-01-29T01:58:24;11.73;;;7.82;;
69754;SDS011;57023;52.218;5.158;2023-01-29T02:00:52;12.20;;;8.30;;
69754;SDS011;57023;52.218;5.158;2023-01-29T02:03:18;12.40;;;8.10;;
69754;SDS011;57023;52.218;5.158;2023-01-29T02:06:05;11.95;;;8.07;;
69754;SDS011;57023;52.218;5.158;2023-01-29T02:08:51;9.68;;;5.88;;
69754;SDS011;57023;52.218;5.158;2023-01-29T02:11:38;12.75;;;8.23;;
69754;SDS011;57023;52.218;5.158;2023-01-29T02:14:03;11.90;;;7.47;;
69754;SDS011;57023;52.218;5.158;2023-01-29T02:16:29;12.30;;;7.97;;
69754;SDS011;57023;52.218;5.158;2023-01-29T02:18:54;12.00;;;8.27;;
69754;SDS011;57023;52.218;5.158;2023-01-29T02:29:46;13.52;;;8.93;;
69754;SDS011;57023;52.218;5.158;2023-01-29T02:37:51;12.55;;;8.55;;
69754;SDS011;57023;52.218;5.158;2023-01-29T02:40:25;12.73;;;8.63;;
69754;SDS011;57023;52.218;5.158;2023-01-29T02:43:03;15.82;;;10.05;;
69754;SDS011;57023;52.218;5.158;2023-01-29T02:48:04;14.38;;;9.43;;
69754;SDS011;57023;52.218;5.158;2023-01-29T02:50:42;12.70;;;9.05;;
69754;SDS011;57023;52.218;5.158;2023-01-29T02:56:30;14.20;;;9.05;;
69754;SDS011;57023;52.218;5.158;2023-01-29T02:59:04;13.70;;;9.30;;
69754;SDS011;57023;52.218;5.158;2023-01-29T03:01:47;13.15;;;6.85;;
69754;SDS011;57023;52.218;5.158;2023-01-29T03:04:17;15.93;;;10.40;;
69754;SDS011;57023;52.218;5.158;2023-01-29T03:06:52;15.37;;;10.43;;
69754;SDS011;57023;52.218;5.158;2023-01-29T03:09:43;14.48;;;10.40;;
69754;SDS011;57023;52.218;5.158;2023-01-29T03:12:08;15.73;;;10.02;;
69754;SDS011;57023;52.218;5.158;2023-01-29T03:14:42;15.27;;;10.13;;
69754;SDS011;57023;52.218;5.158;2023-01-29T03:17:31;15.90;;;10.53;;
69754;SDS011;57023;52.218;5.158;2023-01-29T03:20:00;14.07;;;8.75;;
69754;SDS011;57023;52.218;5.158;2023-01-29T03:22:27;15.93;;;10.60;;
69754;SDS011;57023;52.218;5.158;2023-01-29T03:24:57;15.95;;;9.90;;
69754;SDS011;57023;52.218;5.158;2023-01-29T03:30:34;12.80;;;8.10;;
69754;SDS011;57023;52.218;5.158;2023-01-29T03:33:22;15.75;;;10.35;;
69754;SDS011;57023;52.218;5.158;2023-01-29T03:38:26;14.60;;;9.57;;
69754;SDS011;57023;52.218;5.158;2023-01-29T03:40:56;14.43;;;10.05;;
69754;SDS011;57023;52.218;5.158;2023-01-29T03:43:30;16.30;;;11.32;;
69754;SDS011;57023;52.218;5.158;2023-01-29T03:51:13;18.00;;;11.90;;
69754;SDS011;57023;52.218;5.158;2023-01-29T04:01:45;17.30;;;12.02;;
69754;SDS011;57023;52.218;5.158;2023-01-29T04:04:14;14.10;;;8.70;;
69754;SDS011;57023;52.218;5.158;2023-01-29T04:06:43;16.05;;;10.48;;
69754;SDS011;57023;52.218;5.158;2023-01-29T04:09:17;16.40;;;9.73;;
69754;SDS011;57023;52.218;5.158;2023-01-29T04:11:51;17.77;;;10.50;;
69754;SDS011;57023;52.218;5.158;2023-01-29T04:14:20;18.95;;;11.80;;
69754;SDS011;57023;52.218;5.158;2023-01-29T04:16:50;17.52;;;10.68;;
69754;SDS011;57023;52.218;5.158;2023-01-29T04:19:16;14.52;;;9.95;;
69754;SDS011;57023;52.218;5.158;2023-01-29T04:21:42;15.95;;;10.75;;
69754;SDS011;57023;52.218;5.158;2023-01-29T04:24:08;18.95;;;12.23;;
69754;SDS011;57023;52.218;5.158;2023-01-29T04:29:26;18.38;;;12.70;;
69754;SDS011;57023;52.218;5.158;2023-01-29T04:31:57;19.00;;;11.93;;
69754;SDS011;57023;52.218;5.158;2023-01-29T04:38:30;16.15;;;9.15;;
69754;SDS011;57023;52.218;5.158;2023-01-29T04:40:57;18.38;;;11.60;;
69754;SDS011;57023;52.218;5.158;2023-01-29T04:46:20;18.65;;;11.10;;
69754;SDS011;57023;52.218;5.158;2023-01-29T04:49:16;19.58;;;12.52;;
69754;SDS011;57023;52.218;5.158;2023-01-29T04:52:28;16.95;;;10.05;;
69754;SDS011;57023;52.218;5.158;2023-01-29T04:55:20;17.38;;;10.90;;
69754;SDS011;57023;52.218;5.158;2023-01-29T04:58:03;16.90;;;10.73;;
69754;SDS011;57023;52.218;5.158;2023-01-29T05:00:32;18.45;;;10.40;;
69754;SDS011;57023;52.218;5.158;2023-01-29T05:02:59;18.10;;;11.68;;
69754;SDS011;57023;52.218;5.158;2023-01-29T05:05:25;18.45;;;9.88;;
69754;SDS011;57023;52.218;5.158;2023-01-29T05:07:51;17.38;;;10.38;;
69754;SDS011;57023;52.218;5.158;2023-01-29T05:10:18;15.93;;;11.68;;
69754;SDS011;57023;52.218;5.158;2023-01-29T05:12:45;17.40;;;10.35;;
69754;SDS011;57023;52.218;5.158;2023-01-29T05:15:16;18.30;;;11.68;;
69754;SDS011;57023;52.218;5.158;2023-01-29T05:17:44;18.45;;;11.43;;
69754;SDS011;57023;52.218;5.158;2023-01-29T05:20:10;19.60;;;11.73;;
69754;SDS011;57023;52.218;5.158;2023-01-29T05:22:36;19.77;;;11.95;;
69754;SDS011;57023;52.218;5.158;2023-01-29T05:25:02;18.58;;;11.38;;
69754;SDS011;57023;52.218;5.158;2023-01-29T05:27:31;16.52;;;11.15;;
69754;SDS011;57023;52.218;5.158;2023-01-29T05:30:17;14.98;;;10.30;;
69754;SDS011;57023;52.218;5.158;2023-01-29T05:32:42;18.88;;;11.70;;
69754;SDS011;57023;52.218;5.158;2023-01-29T05:35:07;14.70;;;9.65;;
69754;SDS011;57023;52.218;5.158;2023-01-29T05:37:33;17.65;;;10.77;;
69754;SDS011;57023;52.218;5.158;2023-01-29T05:39:58;18.65;;;12.05;;
69754;SDS011;57023;52.218;5.158;2023-01-29T05:42:23;16.77;;;11.13;;
69754;SDS011;57023;52.218;5.158;2023-01-29T05:44:49;15.55;;;10.20;;
69754;SDS011;57023;52.218;5.158;2023-01-29T05:47:17;17.40;;;11.55;;
69754;SDS011;57023;52.218;5.158;2023-01-29T05:49:43;17.30;;;11.63;;
69754;SDS011;57023;52.218;5.158;2023-01-29T05:52:09;15.30;;;10.40;;
69754;SDS011;57023;52.218;5.158;2023-01-29T05:54:34;13.93;;;9.38;;
69754;SDS011;57023;52.218;5.158;2023-01-29T05:56:59;16.42;;;10.52;;
69754;SDS011;57023;52.218;5.158;2023-01-29T05:59:25;18.20;;;11.93;;
69754;SDS011;57023;52.218;5.158;2023-01-29T06:01:50;19.17;;;11.88;;
69754;SDS011;57023;52.218;5.158;2023-01-29T06:04:15;17.00;;;11.15;;
69754;SDS011;57023;52.218;5.158;2023-01-29T06:06:41;19.42;;;12.25;;
69754;SDS011;57023;52.218;5.158;2023-01-29T06:09:06;17.30;;;10.70;;
69754;SDS011;57023;52.218;5.158;2023-01-29T06:11:33;15.32;;;10.63;;
69754;SDS011;57023;52.218;5.158;2023-01-29T06:13:58;16.10;;;10.23;;
69754;SDS011;57023;52.218;5.158;2023-01-29T06:16:24;17.73;;;10.13;;
69754;SDS011;57023;52.218;5.158;2023-01-29T06:18:49;13.63;;;8.85;;
69754;SDS011;57023;52.218;5.158;2023-01-29T06:21:14;15.50;;;11.38;;
69754;SDS011;57023;52.218;5.158;2023-01-29T06:23:40;19.73;;;12.30;;
69754;SDS011;57023;52.218;5.158;2023-01-29T06:26:06;17.40;;;11.00;;
69754;SDS011;57023;52.218;5.158;2023-01-29T06:28:33;17.75;;;11.52;;
69754;SDS011;57023;52.218;5.158;2023-01-29T06:30:59;16.48;;;11.15;;
69754;SDS011;57023;52.218;5.158;2023-01-29T06:35:58;18.80;;;11.77;;
69754;SDS011;57023;52.218;5.158;2023-01-29T06:38:24;17.23;;;10.90;;
69754;SDS011;57023;52.218;5.158;2023-01-29T06:40:49;19.35;;;12.50;;
69754;SDS011;57023;52.218;5.158;2023-01-29T06:43:15;18.48;;;10.48;;
69754;SDS011;57023;52.218;5.158;2023-01-29T06:45:52;17.95;;;10.95;;
69754;SDS011;57023;52.218;5.158;2023-01-29T06:48:19;19.58;;;12.43;;
69754;SDS011;57023;52.218;5.158;2023-01-29T06:50:44;19.17;;;12.07;;
69754;SDS011;57023;52.218;5.158;2023-01-29T06:53:10;16.67;;;11.07;;
69754;SDS011;57023;52.218;5.158;2023-01-29T06:55:36;17.67;;;12.23;;
69754;SDS011;57023;52.218;5.158;2023-01-29T06:58:05;13.90;;;9.30;;
69754;SDS011;57023;52.218;5.158;2023-01-29T07:00:31;17.90;;;10.32;;
69754;SDS011;57023;52.218;5.158;2023-01-29T07:02:57;16.77;;;11.57;;
69754;SDS011;57023;52.218;5.158;2023-01-29T07:05:22;19.23;;;11.93;;
69754;SDS011;57023;52.218;5.158;2023-01-29T07:07:47;21.02;;;12.13;;
69754;SDS011;57023;52.218;5.158;2023-01-29T07:10:12;18.45;;;13.45;;
69754;SDS011;57023;52.218;5.158;2023-01-29T07:12:38;20.55;;;13.80;;
69754;SDS011;57023;52.218;5.158;2023-01-29T07:15:03;18.08;;;11.88;;
69754;SDS011;57023;52.218;5.158;2023-01-29T07:17:29;19.80;;;12.57;;
69754;SDS011;57023;52.218;5.158;2023-01-29T07:19:54;15.25;;;10.32;;
69754;SDS011;57023;52.218;5.158;2023-01-29T07:22:19;19.27;;;12.40;;
69754;SDS011;57023;52.218;5.158;2023-01-29T07:24:45;16.90;;;12.00;;
69754;SDS011;57023;52.218;5.158;2023-01-29T07:27:12;16.77;;;11.65;;
69754;SDS011;57023;52.218;5.158;2023-01-29T07:29:37;12.15;;;6.30;;
69754;SDS011;57023;52.218;5.158;2023-01-29T07:32:02;17.38;;;11.25;;
69754;SDS011;57023;52.218;5.158;2023-01-29T07:34:28;16.08;;;9.98;;
69754;SDS011;57023;52.218;5.158;2023-01-29T07:36:53;18.27;;;12.48;;
69754;SDS011;57023;52.218;5.158;2023-01-29T07:39:19;17.20;;;11.98;;
69754;SDS011;57023;52.218;5.158;2023-01-29T07:41:44;14.52;;;10.70;;
69754;SDS011;57023;52.218;5.158;2023-01-29T07:44:09;18.48;;;11.85;;
69754;SDS011;57023;52.218;5.158;2023-01-29T07:46:35;15.95;;;10.45;;
69754;SDS011;57023;52.218;5.158;2023-01-29T07:49:00;17.83;;;12.23;;
69754;SDS011;57023;52.218;5.158;2023-01-29T07:51:25;16.33;;;10.45;;
69754;SDS011;57023;52.218;5.158;2023-01-29T07:53:51;15.73;;;10.82;;
69754;SDS011;57023;52.218;5.158;2023-01-29T07:56:17;15.82;;;9.32;;
69754;SDS011;57023;52.218;5.158;2023-01-29T07:58:42;15.90;;;12.52;;
69754;SDS011;57023;52.218;5.158;2023-01-29T08:01:08;17.40;;;12.38;;
69754;SDS011;57023;52.218;5.158;2023-01-29T08:03:33;16.88;;;12.18;;
69754;SDS011;57023;52.218;5.158;2023-01-29T08:05:58;17.48;;;11.93;;
69754;SDS011;57023;52.218;5.158;2023-01-29T08:08:24;16.85;;;11.93;;
69754;SDS011;57023;52.218;5.158;2023-01-29T08:10:49;16.95;;;11.88;;
69754;SDS011;57023;52.218;5.158;2023-01-29T08:13:15;15.90;;;10.57;;
69754;SDS011;57023;52.218;5.158;2023-01-29T08:15:43;17.67;;;12.90;;
69754;SDS011;57023;52.218;5.158;2023-01-29T08:18:11;14.32;;;9.07;;
69754;SDS011;57023;52.218;5.158;2023-01-29T08:20:37;16.38;;;10.60;;
69754;SDS011;57023;52.218;5.158;2023-01-29T08:23:04;16.02;;;11.02;;
69754;SDS011;57023;52.218;5.158;2023-01-29T08:25:31;16.95;;;12.20;;
69754;SDS011;57023;52.218;5.158;2023-01-29T08:27:57;16.85;;;11.38;;
69754;SDS011;57023;52.218;5.158;2023-01-29T08:30:24;15.13;;;10.25;;
69754;SDS011;57023;52.218;5.158;2023-01-29T08:32:50;16.50;;;12.35;;
69754;SDS011;57023;52.218;5.158;2023-01-29T08:35:15;15.85;;;10.95;;
69754;SDS011;57023;52.218;5.158;2023-01-29T08:37:41;12.90;;;9.60;;
69754;SDS011;57023;52.218;5.158;2023-01-29T08:40:06;16.77;;;10.70;;
69754;SDS011;57023;52.218;5.158;2023-01-29T08:42:33;15.38;;;9.88;;
69754;SDS011;57023;52.218;5.158;2023-01-29T08:44:58;16.85;;;11.35;;
69754;SDS011;57023;52.218;5.158;2023-01-29T08:47:24;17.30;;;11.13;;
69754;SDS011;57023;52.218;5.158;2023-01-29T08:49:49;18.02;;;12.25;;
69754;SDS011;57023;52.218;5.158;2023-01-29T08:52:14;16.35;;;12.02;;
69754;SDS011;57023;52.218;5.158;2023-01-29T08:54:39;15.93;;;10.55;;
69754;SDS011;57023;52.218;5.158;2023-01-29T08:57:05;12.82;;;9.18;;
69754;SDS011;57023;52.218;5.158;2023-01-29T08:59:31;14.50;;;9.90;;
69754;SDS011;57023;52.218;5.158;2023-01-29T09:01:56;14.45;;;10.32;;
69754;SDS011;57023;52.218;5.158;2023-01-29T09:04:21;14.88;;;8.63;;
69754;SDS011;57023;52.218;5.158;2023-01-29T09:06:47;16.02;;;11.38;;
69754;SDS011;57023;52.218;5.158;2023-01-29T09:09:12;15.48;;;11.20;;
69754;SDS011;57023;52.218;5.158;2023-01-29T09:11:38;16.70;;;10.98;;
69754;SDS011;57023;52.218;5.158;2023-01-29T09:14:04;15.75;;;11.32;;
69754;SDS011;57023;52.218;5.158;2023-01-29T09:16:29;16.95;;;12.10;;
69754;SDS011;57023;52.218;5.158;2023-01-29T09:18:55;16.10;;;10.48;;
69754;SDS011;57023;52.218;5.158;2023-01-29T09:21:20;13.13;;;9.15;;
69754;SDS011;57023;52.218;5.158;2023-01-29T09:23:45;13.93;;;9.70;;
69754;SDS011;57023;52.218;5.158;2023-01-29T09:26:11;15.98;;;11.05;;
69754;SDS011;57023;52.218;5.158;2023-01-29T09:28:36;13.88;;;9.95;;
69754;SDS011;57023;52.218;5.158;2023-01-29T09:31:02;15.45;;;9.85;;
69754;SDS011;57023;52.218;5.158;2023-01-29T09:33:27;15.15;;;10.48;;
69754;SDS011;57023;52.218;5.158;2023-01-29T09:35:53;17.05;;;11.93;;
69754;SDS011;57023;52.218;5.158;2023-01-29T09:38:18;17.00;;;11.60;;
69754;SDS011;57023;52.218;5.158;2023-01-29T09:40:47;18.33;;;12.40;;
69754;SDS011;57023;52.218;5.158;2023-01-29T09:43:17;16.08;;;11.77;;
69754;SDS011;57023;52.218;5.158;2023-01-29T09:45:52;16.58;;;11.38;;
69754;SDS011;57023;52.218;5.158;2023-01-29T09:48:20;16.40;;;11.48;;
69754;SDS011;57023;52.218;5.158;2023-01-29T09:55:49;14.65;;;10.10;;
69754;SDS011;57023;52.218;5.158;2023-01-29T09:58:18;14.15;;;9.75;;
69754;SDS011;57023;52.218;5.158;2023-01-29T10:01:07;17.13;;;12.35;;
69754;SDS011;57023;52.218;5.158;2023-01-29T10:03:58;17.08;;;11.48;;
69754;SDS011;57023;52.218;5.158;2023-01-29T10:25:02;16.38;;;10.65;;
69754;SDS011;57023;52.218;5.158;2023-01-29T10:27:35;14.32;;;9.52;;
69754;SDS011;57023;52.218;5.158;2023-01-29T10:30:05;15.68;;;11.65;;
69754;SDS011;57023;52.218;5.158;2023-01-29T10:32:41;17.90;;;10.80;;
69754;SDS011;57023;52.218;5.158;2023-01-29T10:35:19;14.48;;;10.32;;
69754;SDS011;57023;52.218;5.158;2023-01-29T10:37:46;14.55;;;9.77;;
69754;SDS011;57023;52.218;5.158;2023-01-29T10:40:22;17.38;;;10.32;;
69754;SDS011;57023;52.218;5.158;2023-01-29T10:42:54;18.30;;;13.88;;
69754;SDS011;57023;52.218;5.158;2023-01-29T10:45:36;20.17;;;12.15;;
69754;SDS011;57023;52.218;5.158;2023-01-29T10:48:37;15.70;;;11.20;;
69754;SDS011;57023;52.218;5.158;2023-01-29T10:56:38;16.27;;;11.32;;
69754;SDS011;57023;52.218;5.158;2023-01-29T11:02:08;15.48;;;11.52;;
69754;SDS011;57023;52.218;5.158;2023-01-29T11:04:38;18.67;;;13.05;;
69754;SDS011;57023;52.218;5.158;2023-01-29T11:07:03;18.85;;;11.93;;
69754;SDS011;57023;52.218;5.158;2023-01-29T11:11:58;15.23;;;10.32;;
69754;SDS011;57023;52.218;5.158;2023-01-29T11:14:37;17.33;;;14.00;;
69754;SDS011;57023;52.218;5.158;2023-01-29T11:17:25;20.02;;;13.80;;
69754;SDS011;57023;52.218;5.158;2023-01-29T11:19:51;20.90;;;14.50;;
69754;SDS011;57023;52.218;5.158;2023-01-29T11:22:20;18.90;;;12.48;;
69754;SDS011;57023;52.218;5.158;2023-01-29T11:25:06;20.15;;;13.38;;
69754;SDS011;57023;52.218;5.158;2023-01-29T11:27:32;18.98;;;14.40;;
69754;SDS011;57023;52.218;5.158;2023-01-29T11:29:59;16.90;;;10.43;;
69754;SDS011;57023;52.218;5.158;2023-01-29T11:32:25;16.70;;;10.57;;
69754;SDS011;57023;52.218;5.158;2023-01-29T11:37:38;19.67;;;12.13;;
69754;SDS011;57023;52.218;5.158;2023-01-29T11:42:48;22.73;;;13.80;;
69754;SDS011;57023;52.218;5.158;2023-01-29T11:47:49;20.83;;;15.77;;
69754;SDS011;57023;52.218;5.158;2023-01-29T11:50:27;17.95;;;12.13;;
69754;SDS011;57023;52.218;5.158;2023-01-29T11:52:53;20.73;;;14.25;;
69754;SDS011;57023;52.218;5.158;2023-01-29T11:55:26;21.33;;;15.00;;
69754;SDS011;57023;52.218;5.158;2023-01-29T11:57:53;20.25;;;13.48;;
69754;SDS011;57023;52.218;5.158;2023-01-29T12:00:26;20.23;;;14.98;;
69754;SDS011;57023;52.218;5.158;2023-01-29T12:05:20;20.45;;;14.15;;
69754;SDS011;57023;52.218;5.158;2023-01-29T12:07:52;16.67;;;9.48;;
69754;SDS011;57023;52.218;5.158;2023-01-29T12:10:38;20.65;;;14.45;;
69754;SDS011;57023;52.218;5.158;2023-01-29T12:13:06;18.15;;;13.65;;
69754;SDS011;57023;52.218;5.158;2023-01-29T12:15:45;20.48;;;13.23;;
69754;SDS011;57023;52.218;5.158;2023-01-29T12:21:04;21.75;;;14.65;;
69754;SDS011;57023;52.218;5.158;2023-01-29T12:26:20;19.17;;;13.93;;
69754;SDS011;57023;52.218;5.158;2023-01-29T12:31:58;13.25;;;9.35;;
69754;SDS011;57023;52.218;5.158;2023-01-29T12:40:33;16.63;;;11.00;;
69754;SDS011;57023;52.218;5.158;2023-01-29T12:43:12;18.83;;;11.88;;
69754;SDS011;57023;52.218;5.158;2023-01-29T12:45:40;17.90;;;11.73;;
69754;SDS011;57023;52.218;5.158;2023-01-29T12:48:09;20.17;;;12.70;;
69754;SDS011;57023;52.218;5.158;2023-01-29T12:50:37;22.60;;;15.15;;
69754;SDS011;57023;52.218;5.158;2023-01-29T12:53:05;16.83;;;12.65;;
69754;SDS011;57023;52.218;5.158;2023-01-29T12:55:53;15.32;;;10.57;;
69754;SDS011;57023;52.218;5.158;2023-01-29T12:58:22;19.63;;;15.68;;
69754;SDS011;57023;52.218;5.158;2023-01-29T13:00:53;20.40;;;13.38;;
69754;SDS011;57023;52.218;5.158;2023-01-29T13:05:49;19.48;;;13.27;;
69754;SDS011;57023;52.218;5.158;2023-01-29T13:08:28;18.00;;;12.32;;
69754;SDS011;57023;52.218;5.158;2023-01-29T13:10:56;22.13;;;15.35;;
69754;SDS011;57023;52.218;5.158;2023-01-29T13:13:33;21.55;;;14.77;;
69754;SDS011;57023;52.218;5.158;2023-01-29T13:16:11;19.63;;;15.00;;
69754;SDS011;57023;52.218;5.158;2023-01-29T13:18:42;20.45;;;16.48;;
69754;SDS011;57023;52.218;5.158;2023-01-29T13:21:12;22.65;;;15.13;;
69754;SDS011;57023;52.218;5.158;2023-01-29T13:23:45;20.52;;;14.13;;
69754;SDS011;57023;52.218;5.158;2023-01-29T13:26:16;19.88;;;13.73;;
69754;SDS011;57023;52.218;5.158;2023-01-29T13:28:41;19.67;;;15.13;;
69754;SDS011;57023;52.218;5.158;2023-01-29T13:31:09;19.57;;;13.30;;
69754;SDS011;57023;52.218;5.158;2023-01-29T13:33:35;20.33;;;14.82;;
69754;SDS011;57023;52.218;5.158;2023-01-29T13:36:01;18.70;;;13.05;;
69754;SDS011;57023;52.218;5.158;2023-01-29T13:38:27;18.67;;;13.15;;
69754;SDS011;57023;52.218;5.158;2023-01-29T13:40:57;15.57;;;11.10;;
69754;SDS011;57023;52.218;5.158;2023-01-29T13:43:25;19.45;;;14.95;;
69754;SDS011;57023;52.218;5.158;2023-01-29T13:45:51;18.80;;;14.95;;
69754;SDS011;57023;52.218;5.158;2023-01-29T13:48:23;16.88;;;12.30;;
69754;SDS011;57023;52.218;5.158;2023-01-29T13:50:51;19.70;;;13.43;;
69754;SDS011;57023;52.218;5.158;2023-01-29T13:53:19;16.08;;;11.13;;
69754;SDS011;57023;52.218;5.158;2023-01-29T13:55:46;21.60;;;13.85;;
69754;SDS011;57023;52.218;5.158;2023-01-29T13:58:15;19.30;;;12.65;;
69754;SDS011;57023;52.218;5.158;2023-01-29T14:00:57;17.45;;;13.40;;
69754;SDS011;57023;52.218;5.158;2023-01-29T14:05:58;19.15;;;12.93;;
69754;SDS011;57023;52.218;5.158;2023-01-29T14:13:39;18.52;;;13.95;;
69754;SDS011;57023;52.218;5.158;2023-01-29T14:21:32;18.75;;;12.70;;
69754;SDS011;57023;52.218;5.158;2023-01-29T14:24:08;15.63;;;11.57;;
69754;SDS011;57023;52.218;5.158;2023-01-29T14:26:40;17.98;;;12.77;;
69754;SDS011;57023;52.218;5.158;2023-01-29T14:31:40;16.90;;;11.63;;
69754;SDS011;57023;52.218;5.158;2023-01-29T14:34:14;16.45;;;10.82;;
69754;SDS011;57023;52.218;5.158;2023-01-29T14:36:42;18.13;;;13.32;;
69754;SDS011;57023;52.218;5.158;2023-01-29T14:39:22;17.50;;;11.88;;
69754;SDS011;57023;52.218;5.158;2023-01-29T14:41:52;17.67;;;11.90;;
69754;SDS011;57023;52.218;5.158;2023-01-29T14:49:52;18.67;;;13.35;;
69754;SDS011;57023;52.218;5.158;2023-01-29T14:52:19;16.10;;;10.15;;
69754;SDS011;57023;52.218;5.158;2023-01-29T14:54:51;17.00;;;13.45;;
69754;SDS011;57023;52.218;5.158;2023-01-29T14:57:17;12.70;;;9.00;;
69754;SDS011;57023;52.218;5.158;2023-01-29T14:59:48;17.67;;;13.00;;
69754;SDS011;57023;52.218;5.158;2023-01-29T15:02:19;17.88;;;11.82;;
69754;SDS011;57023;52.218;5.158;2023-01-29T15:04:49;17.98;;;12.43;;
69754;SDS011;57023;52.218;5.158;2023-01-29T15:07:29;18.25;;;13.13;;
69754;SDS011;57023;52.218;5.158;2023-01-29T15:12:46;16.80;;;12.98;;
69754;SDS011;57023;52.218;5.158;2023-01-29T15:15:20;13.77;;;9.63;;
69754;SDS011;57023;52.218;5.158;2023-01-29T15:18:00;16.85;;;11.52;;
69754;SDS011;57023;52.218;5.158;2023-01-29T15:20:30;14.25;;;10.63;;
69754;SDS011;57023;52.218;5.158;2023-01-29T15:22:57;14.77;;;10.35;;
69754;SDS011;57023;52.218;5.158;2023-01-29T15:25:23;17.63;;;11.43;;
69754;SDS011;57023;52.218;5.158;2023-01-29T15:27:49;18.38;;;11.93;;
69754;SDS011;57023;52.218;5.158;2023-01-29T15:30:19;15.00;;;10.65;;
69754;SDS011;57023;52.218;5.158;2023-01-29T15:32:50;15.32;;;12.00;;
69754;SDS011;57023;52.218;5.158;2023-01-29T15:35:24;14.85;;;11.05;;
69754;SDS011;57023;52.218;5.158;2023-01-29T15:38:28;15.38;;;11.07;;
69754;SDS011;57023;52.218;5.158;2023-01-29T15:40:55;12.93;;;8.68;;
69754;SDS011;57023;52.218;5.158;2023-01-29T15:43:25;18.20;;;12.25;;
69754;SDS011;57023;52.218;5.158;2023-01-29T15:45:52;17.35;;;11.65;;
69754;SDS011;57023;52.218;5.158;2023-01-29T15:48:21;15.75;;;11.63;;
69754;SDS011;57023;52.218;5.158;2023-01-29T15:50:53;16.58;;;12.45;;
69754;SDS011;57023;52.218;5.158;2023-01-29T15:53:20;15.55;;;10.57;;
69754;SDS011;57023;52.218;5.158;2023-01-29T15:55:52;16.00;;;10.45;;
69754;SDS011;57023;52.218;5.158;2023-01-29T15:58:21;17.05;;;11.65;;
69754;SDS011;57023;52.218;5.158;2023-01-29T16:00:52;19.10;;;13.55;;
69754;SDS011;57023;52.218;5.158;2023-01-29T16:03:19;21.65;;;14.90;;
69754;SDS011;57023;52.218;5.158;2023-01-29T16:05:47;21.23;;;12.52;;
69754;SDS011;57023;52.218;5.158;2023-01-29T16:08:12;20.15;;;14.27;;
69754;SDS011;57023;52.218;5.158;2023-01-29T16:10:39;15.10;;;9.43;;
69754;SDS011;57023;52.218;5.158;2023-01-29T16:13:06;20.02;;;12.75;;
69754;SDS011;57023;52.218;5.158;2023-01-29T16:15:36;17.52;;;11.00;;
69754;SDS011;57023;52.218;5.158;2023-01-29T16:18:16;18.58;;;13.85;;
69754;SDS011;57023;52.218;5.158;2023-01-29T16:20:45;16.55;;;10.38;;
69754;SDS011;57023;52.218;5.158;2023-01-29T16:23:16;18.75;;;11.75;;
69754;SDS011;57023;52.218;5.158;2023-01-29T16:25:43;22.42;;;12.45;;
69754;SDS011;57023;52.218;5.158;2023-01-29T16:28:08;19.10;;;13.68;;
69754;SDS011;57023;52.218;5.158;2023-01-29T16:30:35;16.75;;;11.13;;
69754;SDS011;57023;52.218;5.158;2023-01-29T16:33:04;18.65;;;11.95;;
69754;SDS011;57023;52.218;5.158;2023-01-29T16:35:31;14.95;;;10.23;;
69754;SDS011;57023;52.218;5.158;2023-01-29T16:37:58;19.23;;;13.77;;
69754;SDS011;57023;52.218;5.158;2023-01-29T16:40:28;19.45;;;14.10;;
69754;SDS011;57023;52.218;5.158;2023-01-29T16:43:36;19.95;;;12.55;;
69754;SDS011;57023;52.218;5.158;2023-01-29T16:48:44;19.58;;;13.88;;
69754;SDS011;57023;52.218;5.158;2023-01-29T16:51:12;18.45;;;13.30;;
69754;SDS011;57023;52.218;5.158;2023-01-29T16:53:56;19.90;;;14.15;;
69754;SDS011;57023;52.218;5.158;2023-01-29T16:56:23;19.17;;;12.50;;
69754;SDS011;57023;52.218;5.158;2023-01-29T16:58:50;19.08;;;13.90;;
69754;SDS011;57023;52.218;5.158;2023-01-29T17:01:16;19.85;;;13.95;;
69754;SDS011;57023;52.218;5.158;2023-01-29T17:03:42;17.67;;;13.35;;
69754;SDS011;57023;52.218;5.158;2023-01-29T17:06:08;17.33;;;12.25;;
69754;SDS011;57023;52.218;5.158;2023-01-29T17:08:35;15.90;;;11.15;;